This is the latest recevied weather packets stored in our database for station/object OK1PMP-6. If no packets are shown the sender has not sent any weather packets the latest 10 day(s).
| Time | Temp. | Humidity | Pressure | Rain* | Wind** | Luminosity | Snow |
|---|---|---|---|---|---|---|---|
| 1777880589 | 17.22° C | 50% | 1018.3 hPa | 0 mm | - | 629 W/m² | - |
| 1777879689 | 15.56° C | 53% | 1017.8 hPa | 0 mm | - | 223 W/m² | - |
| 1777878787 | 15.56° C | 53% | 1017.9 hPa | 0 mm | - | 170 W/m² | - |
| 1777877886 | 15° C | 54% | 1017.8 hPa | 0 mm | - | 277 W/m² | - |
| 1777876986 | 14.44° C | 56% | 1017.7 hPa | 0 mm | - | 184 W/m² | - |
| 1777876086 | 13.89° C | 55% | 1017.9 hPa | 0 mm | - | 144 W/m² | - |
| 1777875186 | 13.33° C | 57% | 1017.5 hPa | 0 mm | - | 106 W/m² | - |
| 1777874286 | 12.78° C | 60% | 1017.6 hPa | 0 mm | - | 90 W/m² | - |
| 1777873386 | 12.22° C | 60% | 1015.4 hPa | 0 mm | - | 45 W/m² | - |
| 1777872486 | 11.67° C | 62% | 1017.9 hPa | 0 mm | - | 15 W/m² | - |
| 1777871586 | 11.67° C | 60% | 1018.1 hPa | 0 mm | - | 37 W/m² | - |
| 1777870697 | 11.67° C | 59% | 1017.9 hPa | 0 mm | - | 45 W/m² | - |
| 1777869787 | 11.11° C | 58% | 1017.2 hPa | 0 mm | - | 18 W/m² | - |
| 1777868886 | 11.11° C | 59% | 1017.3 hPa | 0 mm | - | 20 W/m² | - |
| 1777867986 | 10.56° C | 59% | 1017.2 hPa | 0 mm | - | 23 W/m² | - |
| 1777867086 | 10° C | 60% | 1017.1 hPa | 0 mm | - | 11 W/m² | - |
| 1777866186 | 10° C | 60% | 1017.3 hPa | 0 mm | - | 5 W/m² | - |
| 1777865286 | 10.56° C | 57% | 1017.2 hPa | 0 mm | - | 2 W/m² | - |
| 1777864387 | 11.11° C | 57% | 1017.2 hPa | 0 mm | - | 0 W/m² | - |
| 1777863487 | 11.67° C | 54% | 1017.2 hPa | 0 mm | - | 0 W/m² | - |
| 1777862586 | 12.22° C | 54% | 1017 hPa | 0 mm | - | 0 W/m² | - |
| 1777861685 | 12.22° C | 54% | 1016.9 hPa | 0 mm | - | 0 W/m² | - |
| 1777860786 | 12.22° C | 54% | 1017.2 hPa | 0 mm | - | 0 W/m² | - |
| 1777859887 | 12.78° C | 54% | 1017.2 hPa | 0 mm | - | 0 W/m² | - |
| 1777858983 | 12.78° C | 52% | 1017.1 hPa | 0 mm | - | 0 W/m² | - |
* Rain latest hour (hover to see other rain measurements)
** Current wind speed in m/s (hover to see current wind gust speed)